createdAt,value
2018-07-27T00:02:00.544Z,22.20
2018-07-27T00:04:28.957Z,22.10
2018-07-27T00:06:57.471Z,22.10
2018-07-27T00:09:26.799Z,22.10
2018-07-27T00:11:55.581Z,22.10
2018-07-27T00:14:24.412Z,22.10
2018-07-27T00:16:52.820Z,22.10
2018-07-27T00:19:21.221Z,22.20
2018-07-27T00:21:50.017Z,22.20
2018-07-27T00:24:18.562Z,22.20
2018-07-27T00:26:46.998Z,22.20
2018-07-27T00:29:15.451Z,22.10
2018-07-27T00:31:43.877Z,22.10
2018-07-27T00:34:12.260Z,22.00
2018-07-27T00:36:41.052Z,22.00
2018-07-27T00:39:11.005Z,21.90
2018-07-27T00:41:40.173Z,21.80
2018-07-27T00:44:09.000Z,21.70
2018-07-27T00:46:37.385Z,21.70
2018-07-27T00:49:06.321Z,21.70
2018-07-27T00:51:34.753Z,21.60
2018-07-27T00:54:05.794Z,21.60
2018-07-27T00:56:34.325Z,21.60
2018-07-27T00:59:02.737Z,21.50
2018-07-27T01:01:32.053Z,21.50
2018-07-27T01:04:00.494Z,21.40
2018-07-27T01:06:28.906Z,21.30
2018-07-27T01:08:57.302Z,21.30
2018-07-27T01:11:25.712Z,21.30
2018-07-27T01:13:54.145Z,21.30
2018-07-27T01:16:23.404Z,21.20
2018-07-27T01:18:51.881Z,21.20
2018-07-27T01:21:20.321Z,21.20
2018-07-27T01:23:48.706Z,21.10
2018-07-27T01:26:17.109Z,21.10
2018-07-27T01:28:45.496Z,21.00
2018-07-27T01:31:13.925Z,21.00
2018-07-27T01:33:42.393Z,20.90
2018-07-27T01:36:10.831Z,20.90
2018-07-27T01:38:39.267Z,20.80
2018-07-27T01:41:07.853Z,20.80
2018-07-27T01:43:36.270Z,20.80
2018-07-27T01:46:06.149Z,20.70
2018-07-27T01:48:34.582Z,20.70
2018-07-27T01:51:03.062Z,20.70
2018-07-27T01:53:31.629Z,20.80
2018-07-27T01:56:00.050Z,20.70
2018-07-27T01:58:28.793Z,20.70
2018-07-27T02:00:57.541Z,20.80
2018-07-27T02:03:25.929Z,20.80
2018-07-27T02:05:54.687Z,21.00
2018-07-27T02:08:23.277Z,21.10
2018-07-27T02:10:51.684Z,21.30
2018-07-27T02:13:20.456Z,21.30
2018-07-27T02:15:48.839Z,21.30
2018-07-27T02:18:17.248Z,21.40
2018-07-27T02:20:45.821Z,21.50
2018-07-27T02:23:14.209Z,21.60
2018-07-27T02:25:42.736Z,21.60
2018-07-27T02:28:11.192Z,21.70
2018-07-27T02:30:39.597Z,22.00
2018-07-27T02:33:07.993Z,22.40
2018-07-27T02:35:36.990Z,22.50
2018-07-27T02:38:06.507Z,22.90
2018-07-27T02:40:34.925Z,23.10
2018-07-27T02:43:03.685Z,23.40
2018-07-27T02:45:32.200Z,23.70
2018-07-27T02:48:00.605Z,23.90
2018-07-27T02:50:29.045Z,24.10
2018-07-27T02:52:57.539Z,24.10
2018-07-27T02:55:25.957Z,24.10
2018-07-27T02:57:54.389Z,24.20
2018-07-27T03:00:22.788Z,24.30
2018-07-27T03:02:51.202Z,24.50
2018-07-27T03:05:19.661Z,24.50
2018-07-27T03:07:48.160Z,24.40
2018-07-27T03:10:16.592Z,24.10
2018-07-27T03:12:44.994Z,23.90
2018-07-27T03:15:13.384Z,23.70
2018-07-27T03:17:41.818Z,23.50
2018-07-27T03:20:10.252Z,23.30
2018-07-27T03:22:38.657Z,23.30
2018-07-27T03:25:07.354Z,23.10
2018-07-27T03:27:35.767Z,22.90
2018-07-27T03:30:04.840Z,22.80
2018-07-27T03:32:33.333Z,22.60
2018-07-27T03:35:01.746Z,22.40
2018-07-27T03:37:30.221Z,22.20
2018-07-27T03:39:58.653Z,22.10
2018-07-27T03:42:27.110Z,22.00
2018-07-27T03:44:55.537Z,21.90
2018-07-27T03:47:23.939Z,21.80
2018-07-27T03:49:53.349Z,21.70
2018-07-27T03:52:21.773Z,21.70
2018-07-27T03:54:50.573Z,21.70
2018-07-27T03:57:18.980Z,21.70
2018-07-27T03:59:47.376Z,21.60
2018-07-27T04:02:15.844Z,21.50
2018-07-27T04:04:44.435Z,21.50
2018-07-27T04:07:12.945Z,21.50
2018-07-27T04:09:41.562Z,21.40
2018-07-27T04:12:10.165Z,21.40
2018-07-27T04:17:06.754Z,21.40
2018-07-27T04:19:35.213Z,21.40
2018-07-27T04:22:03.771Z,21.40
2018-07-27T04:24:32.147Z,21.50
2018-07-27T04:27:00.566Z,21.50
2018-07-27T04:29:29.181Z,21.50
2018-07-27T04:31:57.582Z,21.50
2018-07-27T04:34:25.997Z,21.70
2018-07-27T04:36:54.397Z,21.80
2018-07-27T04:39:22.858Z,22.00
2018-07-27T04:41:57.838Z,22.20
2018-07-27T04:44:26.297Z,22.30
2018-07-27T04:46:54.697Z,22.50
2018-07-27T04:49:23.116Z,22.70
2018-07-27T04:51:51.711Z,22.90
2018-07-27T04:54:20.098Z,23.00
2018-07-27T04:56:48.592Z,23.20
2018-07-27T04:59:17.196Z,23.50
2018-07-27T05:01:45.733Z,23.70
2018-07-27T05:04:14.899Z,24.00
2018-07-27T05:06:44.250Z,24.30
2018-07-27T05:09:18.453Z,24.50
2018-07-27T05:11:47.025Z,24.80
2018-07-27T05:14:15.607Z,25.10
2018-07-27T05:16:44.141Z,25.30
2018-07-27T05:19:12.560Z,25.50
2018-07-27T05:21:41.361Z,25.90
2018-07-27T05:24:09.814Z,26.10
2018-07-27T05:26:38.297Z,26.40
2018-07-27T05:29:07.092Z,26.70
2018-07-27T05:31:35.497Z,26.90
2018-07-27T05:34:04.278Z,27.10
2018-07-27T05:36:32.691Z,27.30
2018-07-27T05:39:01.082Z,27.50
2018-07-27T05:41:29.570Z,27.70
2018-07-27T05:43:57.969Z,27.90
2018-07-27T05:46:26.365Z,28.10
2018-07-27T05:48:54.774Z,28.40
2018-07-27T05:51:23.150Z,28.70
2018-07-27T05:53:51.757Z,28.80
2018-07-27T05:56:20.242Z,28.90
2018-07-27T05:58:48.682Z,29.00
2018-07-27T06:01:17.155Z,29.10
2018-07-27T06:03:46.399Z,29.20
2018-07-27T06:06:14.825Z,29.50
2018-07-27T06:08:43.301Z,29.80
2018-07-27T06:11:12.249Z,30.00
2018-07-27T06:13:40.865Z,30.10
2018-07-27T06:16:10.105Z,30.20
2018-07-27T06:18:38.526Z,30.60
2018-07-27T06:21:13.397Z,30.60
2018-07-27T06:23:42.551Z,30.40
2018-07-27T06:26:11.249Z,30.90
2018-07-27T06:28:39.679Z,31.10
2018-07-27T06:31:08.417Z,31.60
2018-07-27T06:33:36.842Z,32.20
2018-07-27T06:36:05.642Z,32.50
2018-07-27T06:38:34.417Z,33.00
2018-07-27T06:41:03.253Z,33.40
2018-07-27T06:43:31.820Z,33.60
2018-07-27T06:46:00.324Z,33.70
2018-07-27T06:48:28.725Z,33.70
2018-07-27T06:50:57.145Z,33.60
2018-07-27T06:53:26.285Z,33.50
2018-07-27T06:55:54.764Z,33.60
2018-07-27T06:58:23.181Z,33.70
2018-07-27T07:00:51.597Z,34.00
2018-07-27T07:03:20.064Z,33.80
2018-07-27T07:05:48.760Z,34.00
2018-07-27T07:08:17.172Z,33.80
2018-07-27T07:10:45.689Z,33.80
2018-07-27T07:13:14.225Z,33.50
2018-07-27T07:15:42.950Z,33.50
2018-07-27T07:18:11.329Z,33.30
2018-07-27T07:20:39.748Z,33.30
2018-07-27T07:23:08.214Z,33.40
2018-07-27T07:25:36.843Z,33.50
2018-07-27T07:28:05.965Z,33.60
2018-07-27T07:30:34.333Z,33.00
2018-07-27T07:33:02.780Z,33.30
2018-07-27T07:35:31.404Z,33.50
2018-07-27T07:37:59.797Z,33.50
2018-07-27T07:40:28.217Z,34.00
2018-07-27T07:42:56.580Z,34.50
2018-07-27T07:45:25.022Z,34.70
2018-07-27T07:47:53.405Z,34.80
2018-07-27T07:50:21.790Z,34.80
2018-07-27T07:52:50.174Z,34.50
2018-07-27T07:55:18.578Z,34.80
2018-07-27T07:57:47.029Z,35.30
2018-07-27T08:00:15.460Z,35.70
2018-07-27T08:02:43.858Z,35.60
2018-07-27T08:05:12.341Z,34.90
2018-07-27T08:07:40.764Z,34.70
2018-07-27T08:10:09.166Z,34.80
2018-07-27T08:12:37.600Z,34.50
2018-07-27T08:15:05.993Z,34.80
2018-07-27T08:17:34.420Z,34.70
2018-07-27T08:20:02.893Z,34.40
2018-07-27T08:22:31.343Z,34.20
2018-07-27T08:24:59.713Z,34.20
2018-07-27T08:27:28.118Z,34.10
2018-07-27T08:29:56.501Z,34.20
2018-07-27T08:32:24.905Z,34.50
2018-07-27T08:34:53.290Z,34.50
2018-07-27T08:37:21.685Z,34.10
2018-07-27T08:39:50.697Z,34.40
2018-07-27T08:42:19.445Z,34.90
2018-07-27T08:44:47.920Z,35.10
2018-07-27T08:47:16.386Z,35.40
2018-07-27T08:49:44.976Z,35.70
2018-07-27T08:52:13.408Z,36.40
2018-07-27T08:54:41.833Z,35.90
2018-07-27T08:57:10.221Z,36.30
2018-07-27T08:59:38.636Z,36.40
2018-07-27T09:02:07.100Z,36.70
2018-07-27T09:04:35.569Z,36.70
2018-07-27T09:07:04.348Z,36.10
2018-07-27T09:09:32.744Z,35.70
2018-07-27T09:12:01.156Z,35.40
2018-07-27T09:14:29.539Z,35.50
2018-07-27T09:16:57.933Z,35.80
2018-07-27T09:19:26.326Z,35.70
2018-07-27T09:21:55.096Z,35.80
2018-07-27T09:24:23.621Z,35.90
2018-07-27T09:26:52.100Z,36.10
2018-07-27T09:29:20.501Z,35.80
2018-07-27T09:31:49.013Z,35.40
2018-07-27T09:34:17.452Z,35.00
2018-07-27T09:36:46.029Z,35.30
2018-07-27T09:39:14.466Z,35.90
2018-07-27T09:41:42.832Z,35.70
2018-07-27T09:44:11.250Z,35.40
2018-07-27T09:46:39.677Z,35.00
2018-07-27T09:49:08.257Z,34.80
2018-07-27T09:51:36.671Z,34.80
2018-07-27T09:54:05.318Z,35.30
2018-07-27T09:56:33.720Z,35.40
2018-07-27T09:59:02.162Z,35.20
2018-07-27T10:01:30.591Z,34.90
2018-07-27T10:03:59.108Z,35.00
2018-07-27T10:06:27.812Z,35.50
2018-07-27T10:08:56.234Z,35.30
2018-07-27T10:11:24.685Z,35.20
2018-07-27T10:13:53.103Z,34.90
2018-07-27T10:16:21.522Z,34.90
2018-07-27T10:18:49.961Z,34.60
2018-07-27T10:21:18.381Z,34.80
2018-07-27T10:23:46.812Z,35.20
2018-07-27T10:26:15.247Z,35.70
2018-07-27T10:28:43.697Z,35.40
2018-07-27T10:31:12.123Z,34.80
2018-07-27T10:33:40.758Z,34.70
2018-07-27T10:36:09.208Z,34.80
2018-07-27T10:38:37.670Z,34.80
2018-07-27T10:41:06.400Z,35.80
2018-07-27T10:43:35.135Z,36.40
2018-07-27T10:46:03.684Z,36.70
2018-07-27T10:48:32.173Z,36.10
2018-07-27T10:51:00.730Z,36.00
2018-07-27T10:53:29.140Z,36.40
2018-07-27T10:55:57.925Z,35.70
2018-07-27T10:58:26.320Z,34.90
2018-07-27T11:00:54.738Z,35.40
2018-07-27T11:03:23.132Z,35.50
2018-07-27T11:05:51.646Z,35.60
2018-07-27T11:08:20.086Z,35.80
2018-07-27T11:10:49.216Z,36.60
2018-07-27T11:13:17.658Z,37.80
2018-07-27T11:15:46.085Z,38.20
2018-07-27T11:18:14.513Z,38.40
2018-07-27T11:20:42.980Z,38.90
2018-07-27T11:23:11.413Z,38.40
2018-07-27T11:25:39.862Z,38.70
2018-07-27T11:28:08.486Z,38.90
2018-07-27T11:30:36.881Z,38.70
2018-07-27T11:33:05.312Z,38.50
2018-07-27T11:35:33.772Z,38.30
2018-07-27T11:38:02.509Z,38.90
2018-07-27T11:40:30.904Z,39.30
2018-07-27T11:42:59.343Z,39.70
2018-07-27T11:45:27.743Z,39.80
2018-07-27T11:47:56.167Z,40.40
2018-07-27T11:50:24.595Z,40.40
2018-07-27T11:52:53.229Z,40.60
2018-07-27T11:55:21.637Z,40.30
2018-07-27T11:57:50.041Z,38.70
2018-07-27T12:00:18.454Z,38.40
2018-07-27T12:02:47.048Z,38.20
2018-07-27T12:05:15.465Z,38.20
2018-07-27T12:07:43.912Z,39.00
2018-07-27T12:10:12.329Z,38.80
2018-07-27T12:12:40.761Z,38.90
2018-07-27T12:15:09.488Z,39.20
2018-07-27T12:17:37.853Z,38.70
2018-07-27T12:20:06.368Z,38.40
2018-07-27T12:22:34.762Z,38.50
2018-07-27T12:25:03.515Z,38.10
2018-07-27T12:27:31.921Z,38.20
2018-07-27T12:30:00.428Z,38.20
2018-07-27T12:32:28.965Z,38.10
2018-07-27T12:34:57.373Z,37.90
2018-07-27T12:37:25.777Z,37.70
2018-07-27T12:39:54.168Z,37.60
2018-07-27T12:42:22.552Z,37.20
2018-07-27T12:44:50.996Z,37.60
2018-07-27T12:47:19.645Z,38.20
2018-07-27T12:49:48.057Z,38.10
2018-07-27T12:52:16.472Z,37.90
2018-07-27T12:54:44.881Z,38.30
2018-07-27T12:57:13.261Z,38.40
2018-07-27T12:59:41.648Z,37.80
2018-07-27T13:02:10.097Z,38.20
2018-07-27T13:04:38.522Z,39.00
2018-07-27T13:07:06.949Z,39.10
2018-07-27T13:09:35.349Z,38.40
2018-07-27T13:12:04.116Z,38.90
2018-07-27T13:17:00.933Z,38.40
2018-07-27T13:19:29.349Z,38.10
2018-07-27T13:21:58.166Z,38.10
2018-07-27T13:26:55.409Z,38.10
2018-07-27T13:29:23.884Z,38.00
2018-07-27T13:31:53.890Z,38.00
2018-07-27T13:34:40.557Z,38.30
2018-07-27T13:37:09.126Z,37.90
2018-07-27T13:39:38.140Z,37.60
2018-07-27T13:42:07.596Z,37.60
2018-07-27T13:44:37.118Z,37.20
2018-07-27T13:47:06.098Z,36.50
2018-07-27T13:49:34.549Z,36.30
2018-07-27T13:52:03.076Z,36.60
2018-07-27T13:54:32.768Z,36.40
2018-07-27T13:57:02.848Z,36.30
2018-07-27T13:59:31.276Z,36.30
2018-07-27T14:01:59.721Z,36.50
2018-07-27T14:04:28.204Z,36.60
2018-07-27T14:06:58.545Z,36.30
2018-07-27T14:09:27.997Z,36.10
2018-07-27T14:11:56.524Z,36.00
2018-07-27T14:14:25.057Z,35.70
2018-07-27T14:16:53.593Z,35.60
2018-07-27T14:19:22.416Z,35.60
2018-07-27T14:21:50.880Z,35.60
2018-07-27T14:24:19.477Z,35.50
2018-07-27T14:26:47.887Z,35.30
2018-07-27T14:29:16.449Z,35.30
2018-07-27T14:31:45.076Z,35.30
2018-07-27T14:34:13.495Z,35.50
2018-07-27T14:36:41.960Z,35.50
2018-07-27T14:39:12.447Z,35.50
2018-07-27T14:41:41.530Z,35.50
2018-07-27T14:44:09.981Z,35.40
2018-07-27T14:46:38.735Z,35.00
2018-07-27T14:49:11.608Z,35.00
2018-07-27T14:51:40.600Z,35.20
2018-07-27T14:54:10.665Z,35.30
2018-07-27T14:56:39.633Z,35.10
2018-07-27T15:01:36.972Z,35.10
2018-07-27T15:04:05.650Z,35.20
2018-07-27T15:06:34.204Z,35.10
2018-07-27T15:09:02.675Z,35.20
2018-07-27T15:11:31.121Z,35.30
2018-07-27T15:13:59.648Z,35.30
2018-07-27T15:16:28.064Z,35.30
2018-07-27T15:21:24.825Z,34.80
2018-07-27T15:23:53.309Z,34.70
2018-07-27T15:26:21.728Z,34.70
2018-07-27T15:28:50.212Z,34.90
2018-07-27T15:31:18.640Z,35.10
2018-07-27T15:33:47.060Z,35.00
2018-07-27T15:36:15.516Z,35.10
2018-07-27T15:38:44.106Z,35.10
2018-07-27T15:41:12.515Z,35.10
2018-07-27T15:43:41.029Z,34.60
2018-07-27T15:46:09.977Z,34.50
2018-07-27T15:48:38.401Z,34.50
2018-07-27T15:51:07.249Z,34.60
2018-07-27T15:53:35.701Z,34.70
2018-07-27T15:56:04.478Z,34.80
2018-07-27T15:58:32.959Z,34.70
2018-07-27T16:01:01.425Z,34.70
2018-07-27T16:03:29.886Z,34.70
2018-07-27T16:05:58.473Z,34.60
2018-07-27T16:08:26.906Z,34.50
2018-07-27T16:10:55.715Z,34.40
2018-07-27T16:13:24.177Z,34.40
2018-07-27T16:15:52.692Z,34.50
2018-07-27T16:18:21.308Z,34.50
2018-07-27T16:20:50.085Z,34.40
2018-07-27T16:23:18.502Z,34.30
2018-07-27T16:25:47.253Z,34.20
2018-07-27T16:28:15.728Z,34.10
2018-07-27T16:30:45.137Z,34.30
2018-07-27T16:33:13.881Z,34.30
2018-07-27T16:35:42.341Z,34.10
2018-07-27T16:38:10.817Z,34.00
2018-07-27T16:40:39.259Z,34.00
2018-07-27T16:43:07.734Z,34.10
2018-07-27T16:45:36.265Z,34.10
2018-07-27T16:48:04.977Z,34.20
2018-07-27T16:50:33.729Z,34.00
2018-07-27T16:53:02.163Z,33.90
2018-07-27T16:55:30.774Z,33.90
2018-07-27T16:57:59.221Z,33.80
2018-07-27T17:00:27.618Z,34.00
2018-07-27T17:02:56.081Z,33.90
2018-07-27T17:05:24.544Z,33.80
2018-07-27T17:07:52.968Z,33.90
2018-07-27T17:10:21.391Z,33.80
2018-07-27T17:12:49.856Z,33.80
2018-07-27T17:15:18.829Z,33.70
2018-07-27T17:17:47.517Z,33.60
2018-07-27T17:20:15.919Z,33.60
2018-07-27T17:22:44.449Z,33.50
2018-07-27T17:25:13.238Z,33.50
2018-07-27T17:27:42.220Z,33.50
2018-07-27T17:32:39.753Z,33.40
2018-07-27T17:35:08.913Z,33.40
2018-07-27T17:37:37.676Z,33.50
2018-07-27T17:40:06.918Z,33.40
2018-07-27T17:42:35.501Z,33.20
2018-07-27T17:45:04.066Z,33.20
2018-07-27T17:47:32.593Z,33.10
2018-07-27T17:50:01.056Z,33.10
2018-07-27T17:52:29.498Z,33.00
2018-07-27T17:54:58.018Z,33.10
2018-07-27T17:57:26.654Z,33.00
2018-07-27T17:59:55.122Z,32.90
2018-07-27T18:02:23.538Z,32.90
2018-07-27T18:04:51.992Z,32.80
2018-07-27T18:07:23.680Z,32.80
2018-07-27T18:09:52.719Z,32.80
2018-07-27T18:12:21.185Z,32.70
2018-07-27T18:14:49.936Z,32.60
2018-07-27T18:17:18.354Z,32.60
2018-07-27T18:19:46.783Z,32.50
2018-07-27T18:22:15.576Z,32.50
2018-07-27T18:24:44.022Z,32.40
2018-07-27T18:27:12.478Z,32.30
2018-07-27T18:29:40.905Z,32.20
2018-07-27T18:32:09.682Z,32.10
2018-07-27T18:34:38.108Z,32.00
2018-07-27T18:37:06.636Z,32.00
2018-07-27T18:39:35.086Z,31.90
2018-07-27T18:42:04.085Z,31.80
2018-07-27T18:44:32.625Z,31.70
2018-07-27T18:47:01.238Z,31.60
2018-07-27T18:49:29.654Z,31.60
2018-07-27T18:51:58.101Z,31.40
2018-07-27T18:54:26.618Z,31.30
2018-07-27T18:56:55.013Z,31.30
2018-07-27T18:59:23.864Z,31.20
2018-07-27T19:01:52.338Z,31.00
2018-07-27T19:04:20.720Z,31.00
2018-07-27T19:06:49.155Z,30.80
2018-07-27T19:09:17.670Z,30.70
2018-07-27T19:11:46.177Z,30.60
2018-07-27T19:14:14.624Z,30.50
2018-07-27T19:16:43.065Z,30.50
2018-07-27T19:19:11.502Z,30.20
2018-07-27T19:21:39.922Z,30.00
2018-07-27T19:24:08.479Z,29.90
2018-07-27T19:26:37.028Z,29.80
2018-07-27T19:29:05.562Z,29.80
2018-07-27T19:31:34.095Z,29.80
2018-07-27T19:34:02.692Z,29.60
2018-07-27T19:36:31.345Z,29.40
2018-07-27T19:38:59.860Z,29.10
2018-07-27T19:41:28.507Z,28.90
2018-07-27T19:43:57.405Z,28.70
2018-07-27T19:46:25.997Z,28.60
2018-07-27T19:48:54.600Z,28.50
2018-07-27T19:51:23.203Z,28.50
2018-07-27T19:53:51.718Z,28.40
2018-07-27T19:56:20.397Z,28.40
2018-07-27T19:58:48.988Z,28.20
2018-07-27T20:01:17.456Z,28.10
2018-07-27T20:03:45.936Z,28.00
2018-07-27T20:06:14.543Z,28.00
2018-07-27T20:08:43.131Z,28.00
2018-07-27T20:11:11.663Z,28.10
2018-07-27T20:13:40.172Z,28.10
2018-07-27T20:16:08.589Z,28.10
2018-07-27T20:18:36.997Z,28.10
2018-07-27T20:21:05.526Z,28.10
2018-07-27T20:23:33.961Z,28.00
2018-07-27T20:26:02.339Z,28.00
2018-07-27T20:28:30.745Z,28.00
2018-07-27T20:30:59.358Z,27.90
2018-07-27T20:33:27.776Z,27.80
2018-07-27T20:35:56.307Z,27.60
2018-07-27T20:38:24.816Z,27.50
2018-07-27T20:40:53.267Z,27.30
2018-07-27T20:43:21.697Z,27.10
2018-07-27T20:45:50.169Z,26.90
2018-07-27T20:48:18.610Z,26.70
2018-07-27T20:50:47.440Z,26.50
2018-07-27T20:53:17.911Z,26.40
2018-07-27T20:55:46.348Z,26.30
2018-07-27T20:58:14.752Z,26.10
2018-07-27T21:00:43.215Z,26.00
2018-07-27T21:03:11.681Z,25.90
2018-07-27T21:05:40.134Z,25.80
2018-07-27T21:08:08.553Z,25.80
2018-07-27T21:10:36.954Z,25.70
2018-07-27T21:13:05.369Z,25.70
2018-07-27T21:15:33.838Z,25.60
2018-07-27T21:18:02.245Z,25.60
2018-07-27T21:20:30.710Z,25.50
2018-07-27T21:22:59.141Z,25.50
2018-07-27T21:25:27.833Z,25.40
2018-07-27T21:27:56.216Z,25.40
2018-07-27T21:30:24.670Z,25.30
2018-07-27T21:32:57.460Z,25.20
2018-07-27T21:35:27.673Z,25.20
2018-07-27T21:37:56.085Z,25.20
2018-07-27T21:40:24.949Z,25.10
2018-07-27T21:42:53.727Z,25.10
2018-07-27T21:45:22.605Z,24.90
2018-07-27T21:47:52.699Z,24.80
2018-07-27T21:50:21.706Z,24.80
2018-07-27T21:52:50.780Z,24.80
2018-07-27T21:55:20.222Z,24.90
2018-07-27T21:57:52.359Z,24.90
2018-07-27T22:00:35.757Z,24.80
2018-07-27T22:05:59.582Z,24.70
2018-07-27T22:08:34.556Z,24.60
2018-07-27T22:11:04.401Z,24.60
2018-07-27T22:13:33.713Z,24.50
2018-07-27T22:16:04.710Z,24.50
2018-07-27T22:18:34.566Z,24.40
2018-07-27T22:21:06.713Z,24.40
2018-07-27T22:23:35.584Z,24.40
2018-07-27T22:26:05.824Z,24.50
2018-07-27T22:28:34.779Z,24.60
2018-07-27T22:31:09.133Z,24.70
2018-07-27T22:33:39.902Z,24.70
2018-07-27T22:36:11.271Z,24.60
2018-07-27T22:38:41.437Z,24.70
2018-07-27T22:41:14.273Z,24.90
2018-07-27T22:43:53.267Z,24.90
2018-07-27T22:46:23.840Z,24.90
2018-07-27T22:48:55.401Z,24.90
2018-07-27T22:51:29.168Z,25.10
2018-07-27T22:54:02.063Z,25.40
2018-07-27T22:56:34.629Z,25.70
2018-07-27T22:59:04.723Z,25.90
2018-07-27T23:01:34.169Z,26.20
2018-07-27T23:04:04.239Z,26.30
2018-07-27T23:06:33.934Z,26.40
2018-07-27T23:09:04.634Z,26.40
2018-07-27T23:11:34.904Z,26.50
2018-07-27T23:14:03.836Z,26.50
2018-07-27T23:16:34.760Z,26.60
2018-07-27T23:19:04.562Z,26.60
2018-07-27T23:21:34.530Z,26.60
2018-07-27T23:24:03.735Z,26.60
2018-07-27T23:26:34.408Z,26.60
2018-07-27T23:29:04.296Z,26.60
2018-07-27T23:31:35.331Z,26.50
2018-07-27T23:34:10.290Z,26.50
2018-07-27T23:36:41.435Z,26.40
2018-07-27T23:39:14.192Z,26.50
2018-07-27T23:41:44.653Z,26.50
2018-07-27T23:44:17.544Z,26.50
2018-07-27T23:46:47.649Z,26.60
2018-07-27T23:49:20.141Z,26.60
2018-07-27T23:51:55.938Z,26.60
2018-07-27T23:54:30.862Z,26.60
2018-07-27T23:57:07.448Z,26.70
2018-07-27T23:59:37.674Z,26.70
